sensor_id;sensor_type;location;lat;lon;timestamp;pressure;altitude;pressure_sealevel;temperature;humidity
54512;BME280;40419;47.438;19.026;2023-02-23T00:02:16;99873.56;;;7.34;86.90
54512;BME280;40419;47.438;19.026;2023-02-23T00:04:41;99864.72;;;7.25;86.31
54512;BME280;40419;47.438;19.026;2023-02-23T00:07:07;99869.50;;;7.15;86.42
54512;BME280;40419;47.438;19.026;2023-02-23T00:09:37;99864.28;;;7.14;87.60
54512;BME280;40419;47.438;19.026;2023-02-23T00:12:05;99868.69;;;7.15;87.02
54512;BME280;40419;47.438;19.026;2023-02-23T00:14:35;99874.78;;;7.08;86.72
54512;BME280;40419;47.438;19.026;2023-02-23T00:17:05;99857.94;;;7.06;86.97
54512;BME280;40419;47.438;19.026;2023-02-23T00:19:40;99874.41;;;7.12;87.42
54512;BME280;40419;47.438;19.026;2023-02-23T00:22:10;99880.38;;;6.99;87.72
54512;BME280;40419;47.438;19.026;2023-02-23T00:24:36;99877.22;;;7.18;86.37
54512;BME280;40419;47.438;19.026;2023-02-23T00:27:02;99859.78;;;7.14;86.27
54512;BME280;40419;47.438;19.026;2023-02-23T00:29:32;99871.78;;;7.03;86.50
54512;BME280;40419;47.438;19.026;2023-02-23T00:32:08;99872.28;;;7.07;86.55
54512;BME280;40419;47.438;19.026;2023-02-23T00:34:35;99869.81;;;6.97;86.40
54512;BME280;40419;47.438;19.026;2023-02-23T00:37:02;99869.34;;;6.94;87.80
54512;BME280;40419;47.438;19.026;2023-02-23T00:39:28;99875.97;;;7.06;87.10
54512;BME280;40419;47.438;19.026;2023-02-23T00:41:54;99883.88;;;7.07;85.96
54512;BME280;40419;47.438;19.026;2023-02-23T00:44:21;99882.53;;;7.03;86.61
54512;BME280;40419;47.438;19.026;2023-02-23T00:46:49;99869.81;;;6.97;86.00
54512;BME280;40419;47.438;19.026;2023-02-23T00:49:16;99871.78;;;7.03;86.17
54512;BME280;40419;47.438;19.026;2023-02-23T00:51:45;99872.72;;;7.10;85.97
54512;BME280;40419;47.438;19.026;2023-02-23T00:54:12;99879.63;;;6.90;86.52
54512;BME280;40419;47.438;19.026;2023-02-23T00:56:38;99881.16;;;6.84;86.83
54512;BME280;40419;47.438;19.026;2023-02-23T00:59:06;99883.50;;;7.10;86.54
54512;BME280;40419;47.438;19.026;2023-02-23T01:01:40;99880.47;;;6.90;86.53
54512;BME280;40419;47.438;19.026;2023-02-23T01:04:12;99890.91;;;6.85;85.66
54512;BME280;40419;47.438;19.026;2023-02-23T01:06:43;99880.75;;;6.64;87.18
54512;BME280;40419;47.438;19.026;2023-02-23T01:09:16;99886.66;;;6.91;85.80
54512;BME280;40419;47.438;19.026;2023-02-23T01:11:52;99882.06;;;7.00;85.79
54512;BME280;40419;47.438;19.026;2023-02-23T01:14:18;99893.63;;;6.54;88.40
54512;BME280;40419;47.438;19.026;2023-02-23T01:16:45;99881.09;;;6.69;86.67
54512;BME280;40419;47.438;19.026;2023-02-23T01:19:13;99885.22;;;6.49;88.05
54512;BME280;40419;47.438;19.026;2023-02-23T01:21:41;99882.50;;;6.57;87.27
54512;BME280;40419;47.438;19.026;2023-02-23T01:24:10;99885.19;;;6.57;87.22
54512;BME280;40419;47.438;19.026;2023-02-23T01:26:45;99886.69;;;6.60;87.59
54512;BME280;40419;47.438;19.026;2023-02-23T01:29:16;99883.63;;;6.63;87.24
54512;BME280;40419;47.438;19.026;2023-02-23T01:31:46;99883.03;;;6.52;88.11
54512;BME280;40419;47.438;19.026;2023-02-23T01:34:16;99881.81;;;6.55;87.97
54512;BME280;40419;47.438;19.026;2023-02-23T01:36:45;99889.16;;;6.38;87.94
54512;BME280;40419;47.438;19.026;2023-02-23T01:39:18;99879.63;;;6.27;89.30
54512;BME280;40419;47.438;19.026;2023-02-23T01:41:47;99879.22;;;6.38;88.33
54512;BME280;40419;47.438;19.026;2023-02-23T01:46:43;99882.88;;;6.54;87.46
54512;BME280;40419;47.438;19.026;2023-02-23T01:49:21;99879.91;;;6.41;89.17
54512;BME280;40419;47.438;19.026;2023-02-23T01:54:27;99879.91;;;6.41;87.55
54512;BME280;40419;47.438;19.026;2023-02-23T01:56:55;99875.22;;;6.34;88.85
54512;BME280;40419;47.438;19.026;2023-02-23T02:01:55;99876.69;;;6.37;87.40
54512;BME280;40419;47.438;19.026;2023-02-23T02:04:23;99874.63;;;6.47;87.68
54512;BME280;40419;47.438;19.026;2023-02-23T02:06:55;99874.63;;;6.47;88.34
54512;BME280;40419;47.438;19.026;2023-02-23T02:09:21;99876.88;;;6.35;87.05
54512;BME280;40419;47.438;19.026;2023-02-23T02:11:52;99878.91;;;6.33;87.56
54512;BME280;40419;47.438;19.026;2023-02-23T02:14:26;99867.59;;;6.46;87.57
54512;BME280;40419;47.438;19.026;2023-02-23T02:39:10;99864.66;;;6.33;86.42
54512;BME280;40419;47.438;19.026;2023-02-23T02:44:35;99875.53;;;6.39;85.76
54512;BME280;40419;47.438;19.026;2023-02-23T02:47:10;99881.72;;;6.40;87.18
54512;BME280;40419;47.438;19.026;2023-02-23T02:54:51;99880.56;;;6.43;85.71
54512;BME280;40419;47.438;19.026;2023-02-23T02:57:24;99881.59;;;6.42;85.13
54512;BME280;40419;47.438;19.026;2023-02-23T02:59:53;99875.16;;;6.43;86.00
54512;BME280;40419;47.438;19.026;2023-02-23T03:02:39;99888.25;;;6.46;85.57
54512;BME280;40419;47.438;19.026;2023-02-23T03:05:46;99888.50;;;6.28;86.75
54512;BME280;40419;47.438;19.026;2023-02-23T03:11:37;99876.06;;;6.35;85.91
54512;BME280;40419;47.438;19.026;2023-02-23T03:14:43;99879.09;;;6.32;86.00
54512;BME280;40419;47.438;19.026;2023-02-23T03:17:42;99882.25;;;6.35;86.87
54512;BME280;40419;47.438;19.026;2023-02-23T03:26:05;99889.03;;;6.31;87.57
54512;BME280;40419;47.438;19.026;2023-02-23T03:29:01;99898.78;;;6.24;87.44
54512;BME280;40419;47.438;19.026;2023-02-23T03:31:57;99890.50;;;6.34;86.53
54512;BME280;40419;47.438;19.026;2023-02-23T03:34:52;99899.25;;;6.36;86.81
54512;BME280;40419;47.438;19.026;2023-02-23T03:37:42;99891.00;;;6.37;86.50
54512;BME280;40419;47.438;19.026;2023-02-23T03:40:34;99896.75;;;6.34;86.26
54512;BME280;40419;47.438;19.026;2023-02-23T03:43:26;99892.75;;;6.22;87.66
54512;BME280;40419;47.438;19.026;2023-02-23T03:46:12;99888.50;;;6.36;86.39
54512;BME280;40419;47.438;19.026;2023-02-23T03:49:02;99897.22;;;6.38;86.85
54512;BME280;40419;47.438;19.026;2023-02-23T03:51:52;99889.72;;;6.17;87.59
54512;BME280;40419;47.438;19.026;2023-02-23T03:54:41;99894.63;;;6.13;87.43
54512;BME280;40419;47.438;19.026;2023-02-23T03:57:30;99901.00;;;6.12;88.02
54512;BME280;40419;47.438;19.026;2023-02-23T04:00:29;99890.78;;;6.08;88.15
54512;BME280;40419;47.438;19.026;2023-02-23T04:03:20;99894.81;;;6.12;88.41
54512;BME280;40419;47.438;19.026;2023-02-23T04:06:07;99896.63;;;6.19;87.56
54512;BME280;40419;47.438;19.026;2023-02-23T04:08:58;99896.81;;;6.10;87.71
54512;BME280;40419;47.438;19.026;2023-02-23T04:12:03;99899.84;;;6.07;87.74
54512;BME280;40419;47.438;19.026;2023-02-23T04:17:27;99889.44;;;6.03;87.86
54512;BME280;40419;47.438;19.026;2023-02-23T04:19:59;99892.47;;;6.09;86.88
54512;BME280;40419;47.438;19.026;2023-02-23T04:22:24;99896.56;;;6.28;86.34
54512;BME280;40419;47.438;19.026;2023-02-23T04:24:50;99894.41;;;6.23;87.23
54512;BME280;40419;47.438;19.026;2023-02-23T04:27:16;99894.47;;;6.07;87.39
54512;BME280;40419;47.438;19.026;2023-02-23T04:29:42;99885.75;;;6.05;87.16
54512;BME280;40419;47.438;19.026;2023-02-23T04:32:13;99895.16;;;6.00;86.89
54512;BME280;40419;47.438;19.026;2023-02-23T04:34:42;99891.97;;;5.97;87.96
54512;BME280;40419;47.438;19.026;2023-02-23T04:37:12;99897.00;;;6.00;87.14
54512;BME280;40419;47.438;19.026;2023-02-23T04:39:38;99892.47;;;6.00;87.63
54512;BME280;40419;47.438;19.026;2023-02-23T04:42:03;99896.84;;;5.85;89.68
54512;BME280;40419;47.438;19.026;2023-02-23T04:44:35;99893.47;;;6.08;87.57
54512;BME280;40419;47.438;19.026;2023-02-23T04:47:00;99893.84;;;5.80;89.25
54512;BME280;40419;47.438;19.026;2023-02-23T04:49:28;99894.16;;;5.85;88.15
54512;BME280;40419;47.438;19.026;2023-02-23T04:51:54;99902.53;;;6.15;87.64
54512;BME280;40419;47.438;19.026;2023-02-23T04:54:19;99898.38;;;5.88;88.63
54512;BME280;40419;47.438;19.026;2023-02-23T04:56:45;99897.38;;;5.80;88.40
54512;BME280;40419;47.438;19.026;2023-02-23T04:59:10;99901.41;;;5.84;88.09
54512;BME280;40419;47.438;19.026;2023-02-23T05:01:36;99889.78;;;5.84;87.85
54512;BME280;40419;47.438;19.026;2023-02-23T05:04:02;99899.66;;;6.08;87.18
54512;BME280;40419;47.438;19.026;2023-02-23T05:06:30;99894.13;;;5.93;88.84
54512;BME280;40419;47.438;19.026;2023-02-23T05:09:01;99896.03;;;5.84;89.01
54512;BME280;40419;47.438;19.026;2023-02-23T05:11:28;99902.19;;;6.10;87.67
54512;BME280;40419;47.438;19.026;2023-02-23T05:13:56;99897.84;;;6.09;87.81
54512;BME280;40419;47.438;19.026;2023-02-23T05:16:21;99894.34;;;5.83;88.86
54512;BME280;40419;47.438;19.026;2023-02-23T05:18:50;99897.50;;;5.87;88.28
54512;BME280;40419;47.438;19.026;2023-02-23T05:21:20;99905.09;;;6.00;88.66
54512;BME280;40419;47.438;19.026;2023-02-23T05:23:47;99904.44;;;5.81;89.20
54512;BME280;40419;47.438;19.026;2023-02-23T05:26:13;99906.91;;;5.91;88.68
54512;BME280;40419;47.438;19.026;2023-02-23T05:28:40;99915.63;;;5.93;89.68
54512;BME280;40419;47.438;19.026;2023-02-23T05:31:06;99904.56;;;5.96;89.33
54512;BME280;40419;47.438;19.026;2023-02-23T05:33:33;99909.13;;;5.79;88.42
54512;BME280;40419;47.438;19.026;2023-02-23T05:35:59;99905.41;;;5.72;89.00
54512;BME280;40419;47.438;19.026;2023-02-23T05:38:30;99911.81;;;5.71;89.27
54512;BME280;40419;47.438;19.026;2023-02-23T05:40:58;99906.44;;;5.71;88.81
54512;BME280;40419;47.438;19.026;2023-02-23T05:43:26;99917.81;;;6.06;87.00
54512;BME280;40419;47.438;19.026;2023-02-23T05:45:52;99911.47;;;5.66;88.77
54512;BME280;40419;47.438;19.026;2023-02-23T05:48:23;99916.03;;;5.65;88.86
54512;BME280;40419;47.438;19.026;2023-02-23T05:50:49;99903.59;;;5.64;88.18
54512;BME280;40419;47.438;19.026;2023-02-23T05:53:14;99916.03;;;5.74;87.86
54512;BME280;40419;47.438;19.026;2023-02-23T05:55:44;99917.66;;;5.91;86.40
54512;BME280;40419;47.438;19.026;2023-02-23T05:58:10;99920.06;;;5.70;87.60
54512;BME280;40419;47.438;19.026;2023-02-23T06:00:35;99918.19;;;5.70;88.38
54512;BME280;40419;47.438;19.026;2023-02-23T06:03:01;99919.03;;;5.71;87.97
54512;BME280;40419;47.438;19.026;2023-02-23T06:05:30;99926.75;;;5.65;88.14
54512;BME280;40419;47.438;19.026;2023-02-23T06:07:55;99925.59;;;5.68;85.91
54512;BME280;40419;47.438;19.026;2023-02-23T06:10:27;99935.81;;;5.81;86.66
54512;BME280;40419;47.438;19.026;2023-02-23T06:12:53;99936.00;;;6.04;85.76
54512;BME280;40419;47.438;19.026;2023-02-23T06:15:21;99937.47;;;6.15;85.17
54512;BME280;40419;47.438;19.026;2023-02-23T06:17:46;99946.91;;;5.86;86.99
54512;BME280;40419;47.438;19.026;2023-02-23T06:20:12;99939.88;;;5.77;86.31
54512;BME280;40419;47.438;19.026;2023-02-23T06:22:39;99947.88;;;5.93;85.63
54512;BME280;40419;47.438;19.026;2023-02-23T06:25:07;99954.47;;;5.74;86.60
54512;BME280;40419;47.438;19.026;2023-02-23T06:27:39;99953.75;;;5.89;86.38
54512;BME280;40419;47.438;19.026;2023-02-23T06:30:10;99957.66;;;5.86;86.02
54512;BME280;40419;47.438;19.026;2023-02-23T06:32:36;99951.44;;;5.94;86.23
54512;BME280;40419;47.438;19.026;2023-02-23T06:35:04;99957.16;;;5.91;85.38
54512;BME280;40419;47.438;19.026;2023-02-23T06:37:33;99965.38;;;6.06;85.12
54512;BME280;40419;47.438;19.026;2023-02-23T06:40:02;99966.38;;;5.96;84.92
54512;BME280;40419;47.438;19.026;2023-02-23T06:42:30;99968.41;;;5.86;84.70
54512;BME280;40419;47.438;19.026;2023-02-23T06:44:55;99974.47;;;5.80;84.70
54512;BME280;40419;47.438;19.026;2023-02-23T06:47:23;99966.56;;;5.62;86.16
54512;BME280;40419;47.438;19.026;2023-02-23T06:49:52;99969.91;;;5.80;85.38
54512;BME280;40419;47.438;19.026;2023-02-23T06:52:17;99981.50;;;6.06;82.85
54512;BME280;40419;47.438;19.026;2023-02-23T06:54:43;99983.16;;;5.90;83.50
54512;BME280;40419;47.438;19.026;2023-02-23T06:57:09;99978.81;;;5.89;83.24
54512;BME280;40419;47.438;19.026;2023-02-23T06:59:35;99974.44;;;5.96;82.20
54512;BME280;40419;47.438;19.026;2023-02-23T07:02:03;99978.13;;;5.87;83.79
54512;BME280;40419;47.438;19.026;2023-02-23T07:04:30;99980.97;;;5.85;84.48
54512;BME280;40419;47.438;19.026;2023-02-23T07:06:58;99993.09;;;6.06;83.11
54512;BME280;40419;47.438;19.026;2023-02-23T07:09:24;99987.06;;;6.04;83.03
54512;BME280;40419;47.438;19.026;2023-02-23T07:11:52;99990.22;;;6.16;83.22
54512;BME280;40419;47.438;19.026;2023-02-23T07:14:17;99990.91;;;6.18;81.42
54512;BME280;40419;47.438;19.026;2023-02-23T07:16:43;99985.72;;;6.00;81.81
54512;BME280;40419;47.438;19.026;2023-02-23T07:19:13;99994.44;;;6.10;81.53
54512;BME280;40419;47.438;19.026;2023-02-23T07:21:40;99989.72;;;6.12;81.50
54512;BME280;40419;47.438;19.026;2023-02-23T07:24:06;99999.47;;;6.13;80.88
54512;BME280;40419;47.438;19.026;2023-02-23T07:26:37;99993.34;;;6.44;80.41
54512;BME280;40419;47.438;19.026;2023-02-23T07:29:05;99994.78;;;6.07;80.84
54512;BME280;40419;47.438;19.026;2023-02-23T07:31:30;99992.59;;;6.11;81.22
54512;BME280;40419;47.438;19.026;2023-02-23T07:33:58;99995.28;;;6.19;81.96
54512;BME280;40419;47.438;19.026;2023-02-23T07:36:24;99999.63;;;6.03;81.47
54512;BME280;40419;47.438;19.026;2023-02-23T07:38:50;99998.94;;;6.26;81.51
54512;BME280;40419;47.438;19.026;2023-02-23T07:41:18;100001.97;;;6.23;81.21
54512;BME280;40419;47.438;19.026;2023-02-23T07:43:45;99999.28;;;6.23;80.95
54512;BME280;40419;47.438;19.026;2023-02-23T07:46:11;100001.31;;;6.21;80.66
54512;BME280;40419;47.438;19.026;2023-02-23T07:48:42;99997.94;;;6.27;79.98
54512;BME280;40419;47.438;19.026;2023-02-23T07:51:10;99998.59;;;6.29;81.54
54512;BME280;40419;47.438;19.026;2023-02-23T07:53:41;100008.78;;;6.59;79.36
54512;BME280;40419;47.438;19.026;2023-02-23T07:56:11;99992.69;;;6.42;78.67
54512;BME280;40419;47.438;19.026;2023-02-23T07:58:40;99995.91;;;6.37;79.92
54512;BME280;40419;47.438;19.026;2023-02-23T08:01:06;100004.31;;;6.34;79.15
54512;BME280;40419;47.438;19.026;2023-02-23T08:03:32;100001.84;;;6.64;78.72
54512;BME280;40419;47.438;19.026;2023-02-23T08:06:00;99998.19;;;6.49;77.77
54512;BME280;40419;47.438;19.026;2023-02-23T08:08:26;99999.78;;;6.74;77.30
54512;BME280;40419;47.438;19.026;2023-02-23T08:10:59;100004.53;;;6.64;78.41
54512;BME280;40419;47.438;19.026;2023-02-23T08:13:26;99998.16;;;6.65;79.27
54512;BME280;40419;47.438;19.026;2023-02-23T08:15:51;99999.00;;;6.66;78.39
54512;BME280;40419;47.438;19.026;2023-02-23T08:18:22;99998.31;;;6.72;78.74
54512;BME280;40419;47.438;19.026;2023-02-23T08:20:59;100006.13;;;6.90;76.44
54512;BME280;40419;47.438;19.026;2023-02-23T08:23:33;100009.44;;;7.00;76.55
54512;BME280;40419;47.438;19.026;2023-02-23T08:26:00;100012.88;;;6.78;75.87
54512;BME280;40419;47.438;19.026;2023-02-23T08:28:26;100011.94;;;6.70;75.84
54512;BME280;40419;47.438;19.026;2023-02-23T08:30:59;100008.72;;;6.75;77.30
54512;BME280;40419;47.438;19.026;2023-02-23T08:33:25;100009.69;;;6.82;75.50
54512;BME280;40419;47.438;19.026;2023-02-23T08:35:50;100020.00;;;6.70;75.65
54512;BME280;40419;47.438;19.026;2023-02-23T08:38:18;100015.56;;;6.86;76.84
54512;BME280;40419;47.438;19.026;2023-02-23T08:40:46;100012.81;;;6.94;76.12
54512;BME280;40419;47.438;19.026;2023-02-23T08:43:14;100016.94;;;6.82;75.48
54512;BME280;40419;47.438;19.026;2023-02-23T08:45:42;100015.59;;;7.17;73.23
54512;BME280;40419;47.438;19.026;2023-02-23T08:48:07;100020.63;;;7.20;75.14
54512;BME280;40419;47.438;19.026;2023-02-23T08:50:35;100028.47;;;7.30;73.84
54512;BME280;40419;47.438;19.026;2023-02-23T08:53:01;100031.94;;;7.16;73.07
54512;BME280;40419;47.438;19.026;2023-02-23T08:55:31;100019.38;;;7.00;75.10
54512;BME280;40419;47.438;19.026;2023-02-23T08:58:01;100021.63;;;7.19;74.57
54512;BME280;40419;47.438;19.026;2023-02-23T09:00:29;100020.72;;;6.96;73.20
54512;BME280;40419;47.438;19.026;2023-02-23T09:02:59;100024.13;;;7.21;74.72
54512;BME280;40419;47.438;19.026;2023-02-23T09:05:25;100020.47;;;7.45;72.71
54512;BME280;40419;47.438;19.026;2023-02-23T09:07:51;100026.38;;;7.17;72.90
54512;BME280;40419;47.438;19.026;2023-02-23T09:12:51;100020.88;;;7.02;74.06
54512;BME280;40419;47.438;19.026;2023-02-23T09:15:17;100027.44;;;7.31;73.73
54512;BME280;40419;47.438;19.026;2023-02-23T09:17:49;100024.84;;;7.46;73.98
54512;BME280;40419;47.438;19.026;2023-02-23T09:20:18;100027.63;;;7.76;72.11
54512;BME280;40419;47.438;19.026;2023-02-23T09:22:51;100031.34;;;7.52;72.09
54512;BME280;40419;47.438;19.026;2023-02-23T09:25:21;100025.59;;;7.55;70.25
54512;BME280;40419;47.438;19.026;2023-02-23T09:27:51;100034.16;;;7.35;72.70
54512;BME280;40419;47.438;19.026;2023-02-23T09:30:20;100029.03;;;7.72;72.67
54512;BME280;40419;47.438;19.026;2023-02-23T09:32:47;100034.84;;;7.84;71.93
54512;BME280;40419;47.438;19.026;2023-02-23T09:35:17;100038.41;;;7.53;71.17
54512;BME280;40419;47.438;19.026;2023-02-23T09:37:44;100031.56;;;7.73;71.99
54512;BME280;40419;47.438;19.026;2023-02-23T09:41:01;100033.16;;;7.83;70.91
54512;BME280;40419;47.438;19.026;2023-02-23T09:43:30;100025.84;;;7.91;72.34
54512;BME280;40419;47.438;19.026;2023-02-23T09:48:39;100031.66;;;8.03;69.21
54512;BME280;40419;47.438;19.026;2023-02-23T09:51:17;100038.50;;;8.06;70.11
54512;BME280;40419;47.438;19.026;2023-02-23T09:53:52;100037.22;;;7.78;70.65
54512;BME280;40419;47.438;19.026;2023-02-23T09:56:45;100034.69;;;8.00;68.51
54512;BME280;40419;47.438;19.026;2023-02-23T09:59:15;100029.28;;;8.00;70.95
54512;BME280;40419;47.438;19.026;2023-02-23T10:06:53;100030.09;;;8.24;69.13
54512;BME280;40419;47.438;19.026;2023-02-23T10:14:35;100026.06;;;8.20;70.11
54512;BME280;40419;47.438;19.026;2023-02-23T10:23:20;100034.63;;;8.08;67.24
54512;BME280;40419;47.438;19.026;2023-02-23T10:25:49;100029.09;;;8.25;70.53
54512;BME280;40419;47.438;19.026;2023-02-23T10:28:18;100021.13;;;8.46;68.63
54512;BME280;40419;47.438;19.026;2023-02-23T10:30:47;100022.75;;;8.18;67.49
54512;BME280;40419;47.438;19.026;2023-02-23T10:33:23;100017.16;;;8.19;69.62
54512;BME280;40419;47.438;19.026;2023-02-23T10:35:57;100018.19;;;8.33;68.40
54512;BME280;40419;47.438;19.026;2023-02-23T10:38:24;100012.22;;;8.08;67.49
54512;BME280;40419;47.438;19.026;2023-02-23T10:40:57;100006.13;;;8.29;67.48
54512;BME280;40419;47.438;19.026;2023-02-23T10:43:26;100016.34;;;8.19;67.28
54512;BME280;40419;47.438;19.026;2023-02-23T10:45:51;100011.59;;;8.21;67.78
54512;BME280;40419;47.438;19.026;2023-02-23T10:48:25;100007.03;;;8.36;67.11
54512;BME280;40419;47.438;19.026;2023-02-23T10:50:56;100006.56;;;8.32;66.79
54512;BME280;40419;47.438;19.026;2023-02-23T10:53:32;100002.13;;;8.40;66.18
54512;BME280;40419;47.438;19.026;2023-02-23T10:56:13;99994.16;;;8.46;67.37
54512;BME280;40419;47.438;19.026;2023-02-23T10:58:55;99993.97;;;8.48;66.10
54512;BME280;40419;47.438;19.026;2023-02-23T11:01:42;99988.75;;;8.46;66.58
54512;BME280;40419;47.438;19.026;2023-02-23T11:06:51;99984.38;;;8.60;67.20
54512;BME280;40419;47.438;19.026;2023-02-23T11:09:33;99982.16;;;8.64;67.27
54512;BME280;40419;47.438;19.026;2023-02-23T11:12:21;99982.41;;;8.69;65.63
54512;BME280;40419;47.438;19.026;2023-02-23T11:14:54;99974.88;;;8.49;67.99
54512;BME280;40419;47.438;19.026;2023-02-23T11:17:30;99970.41;;;8.57;67.48
54512;BME280;40419;47.438;19.026;2023-02-23T11:20:17;99976.19;;;8.54;67.36
54512;BME280;40419;47.438;19.026;2023-02-23T11:22:47;99969.03;;;8.76;66.95
54512;BME280;40419;47.438;19.026;2023-02-23T11:25:30;99967.31;;;8.90;66.63
54512;BME280;40419;47.438;19.026;2023-02-23T11:27:59;99978.16;;;9.11;65.49
54512;BME280;40419;47.438;19.026;2023-02-23T11:30:34;99971.63;;;8.69;65.92
54512;BME280;40419;47.438;19.026;2023-02-23T11:33:03;99969.22;;;8.59;66.04
54512;BME280;40419;47.438;19.026;2023-02-23T11:35:36;99970.94;;;8.37;66.77
54512;BME280;40419;47.438;19.026;2023-02-23T11:38:23;99966.88;;;8.41;66.81
54512;BME280;40419;47.438;19.026;2023-02-23T11:41:01;99963.25;;;8.49;66.86
54512;BME280;40419;47.438;19.026;2023-02-23T11:43:26;99966.47;;;8.29;66.79
54512;BME280;40419;47.438;19.026;2023-02-23T11:45:59;99959.03;;;8.31;68.20
54512;BME280;40419;47.438;19.026;2023-02-23T11:50:59;99957.88;;;8.49;67.87
54512;BME280;40419;47.438;19.026;2023-02-23T11:56:21;99963.81;;;8.74;67.14
54512;BME280;40419;47.438;19.026;2023-02-23T11:59:05;99957.09;;;8.70;67.07
54512;BME280;40419;47.438;19.026;2023-02-23T12:04:33;99956.38;;;8.61;67.25
54512;BME280;40419;47.438;19.026;2023-02-23T12:10:02;99947.06;;;8.64;67.93
54512;BME280;40419;47.438;19.026;2023-02-23T12:12:38;99935.13;;;8.73;67.51
54512;BME280;40419;47.438;19.026;2023-02-23T12:15:35;99944.13;;;8.95;67.63
54512;BME280;40419;47.438;19.026;2023-02-23T12:18:16;99933.81;;;9.05;66.08
54512;BME280;40419;47.438;19.026;2023-02-23T12:20:47;99937.56;;;9.04;65.94
54512;BME280;40419;47.438;19.026;2023-02-23T12:23:20;99925.94;;;8.89;66.57
54512;BME280;40419;47.438;19.026;2023-02-23T12:26:23;99927.81;;;8.89;66.53
54512;BME280;40419;47.438;19.026;2023-02-23T12:28:55;99928.63;;;9.04;66.52
54512;BME280;40419;47.438;19.026;2023-02-23T12:34:11;99917.19;;;9.02;66.41
54512;BME280;40419;47.438;19.026;2023-02-23T12:36:46;99920.06;;;9.00;66.39
54512;BME280;40419;47.438;19.026;2023-02-23T12:39:42;99906.38;;;9.02;66.05
54512;BME280;40419;47.438;19.026;2023-02-23T12:47:48;99901.75;;;9.17;65.54
54512;BME280;40419;47.438;19.026;2023-02-23T12:52:49;99896.44;;;9.24;66.90
54512;BME280;40419;47.438;19.026;2023-02-23T12:58:17;99896.00;;;9.49;66.59
54512;BME280;40419;47.438;19.026;2023-02-23T13:06:24;99889.16;;;9.25;64.62
54512;BME280;40419;47.438;19.026;2023-02-23T13:14:29;99880.28;;;9.59;66.04
54512;BME280;40419;47.438;19.026;2023-02-23T13:20:05;99875.22;;;9.49;64.71
54512;BME280;40419;47.438;19.026;2023-02-23T13:22:49;99864.41;;;9.21;64.18
54512;BME280;40419;47.438;19.026;2023-02-23T13:27:47;99873.28;;;9.43;64.88
54512;BME280;40419;47.438;19.026;2023-02-23T13:30:14;99868.06;;;9.63;65.25
54512;BME280;40419;47.438;19.026;2023-02-23T13:32:40;99860.31;;;9.60;63.84
54512;BME280;40419;47.438;19.026;2023-02-23T13:35:12;99862.00;;;9.89;64.87
54512;BME280;40419;47.438;19.026;2023-02-23T13:40:34;99858.41;;;9.82;63.36
54512;BME280;40419;47.438;19.026;2023-02-23T13:53:45;99850.16;;;9.90;64.84
54512;BME280;40419;47.438;19.026;2023-02-23T13:56:16;99854.19;;;9.73;64.45
54512;BME280;40419;47.438;19.026;2023-02-23T13:58:59;99854.47;;;9.85;66.43
54512;BME280;40419;47.438;19.026;2023-02-23T14:01:29;99854.00;;;9.46;65.12
54512;BME280;40419;47.438;19.026;2023-02-23T14:04:04;99848.25;;;9.56;65.52
54512;BME280;40419;47.438;19.026;2023-02-23T14:06:38;99854.91;;;9.88;66.74
54512;BME280;40419;47.438;19.026;2023-02-23T14:09:12;99844.69;;;9.55;65.79
54512;BME280;40419;47.438;19.026;2023-02-23T14:11:46;99847.09;;;9.72;66.25
54512;BME280;40419;47.438;19.026;2023-02-23T14:17:40;99848.47;;;9.89;65.97
54512;BME280;40419;47.438;19.026;2023-02-23T14:38:49;99848.28;;;9.91;66.29
54512;BME280;40419;47.438;19.026;2023-02-23T14:46:54;99846.88;;;10.02;65.49
54512;BME280;40419;47.438;19.026;2023-02-23T14:49:26;99849.22;;;9.76;67.75
54512;BME280;40419;47.438;19.026;2023-02-23T14:52:20;99837.25;;;9.57;67.26
54512;BME280;40419;47.438;19.026;2023-02-23T14:54:49;99835.13;;;9.53;68.62
54512;BME280;40419;47.438;19.026;2023-02-23T14:57:23;99842.69;;;9.64;68.02
54512;BME280;40419;47.438;19.026;2023-02-23T15:00:00;99831.16;;;9.49;67.92
54512;BME280;40419;47.438;19.026;2023-02-23T15:02:32;99830.91;;;9.44;68.84
54512;BME280;40419;47.438;19.026;2023-02-23T15:05:13;99831.34;;;9.47;70.03
54512;BME280;40419;47.438;19.026;2023-02-23T15:07:42;99828.78;;;9.39;68.86
54512;BME280;40419;47.438;19.026;2023-02-23T15:10:40;99830.41;;;9.33;69.96
54512;BME280;40419;47.438;19.026;2023-02-23T15:15:44;99823.13;;;9.34;70.08
54512;BME280;40419;47.438;19.026;2023-02-23T15:18:31;99823.75;;;9.36;70.96
54512;BME280;40419;47.438;19.026;2023-02-23T15:21:00;99826.22;;;9.31;70.84
54512;BME280;40419;47.438;19.026;2023-02-23T15:23:35;99826.63;;;9.28;70.90
54512;BME280;40419;47.438;19.026;2023-02-23T15:26:18;99826.19;;;9.24;71.53
54512;BME280;40419;47.438;19.026;2023-02-23T15:28:52;99822.78;;;9.15;71.59
54512;BME280;40419;47.438;19.026;2023-02-23T15:31:21;99824.47;;;9.16;71.44
54512;BME280;40419;47.438;19.026;2023-02-23T15:33:46;99820.97;;;9.22;71.09
54512;BME280;40419;47.438;19.026;2023-02-23T15:36:28;99815.09;;;9.19;70.97
54512;BME280;40419;47.438;19.026;2023-02-23T15:38:56;99820.84;;;9.09;71.69
54512;BME280;40419;47.438;19.026;2023-02-23T15:41:37;99821.81;;;9.01;71.99
54512;BME280;40419;47.438;19.026;2023-02-23T15:44:21;99817.44;;;9.00;72.35
54512;BME280;40419;47.438;19.026;2023-02-23T15:46:56;99817.28;;;9.09;73.58
54512;BME280;40419;47.438;19.026;2023-02-23T15:49:28;99824.53;;;9.01;72.66
54512;BME280;40419;47.438;19.026;2023-02-23T15:52:05;99821.28;;;9.13;70.97
54512;BME280;40419;47.438;19.026;2023-02-23T15:54:47;99813.97;;;9.07;72.91
54512;BME280;40419;47.438;19.026;2023-02-23T15:57:46;99821.81;;;9.01;74.53
54512;BME280;40419;47.438;19.026;2023-02-23T16:00:37;99817.25;;;9.02;76.59
54512;BME280;40419;47.438;19.026;2023-02-23T16:03:06;99818.66;;;8.98;78.04
54512;BME280;40419;47.438;19.026;2023-02-23T16:05:37;99820.34;;;8.99;79.25